createdAt,value
2023-01-19T00:00:34.809Z,-2.87
2023-01-19T00:03:01.127Z,-2.83
2023-01-19T00:05:27.362Z,-2.81
2023-01-19T00:07:53.668Z,-2.74
2023-01-19T00:10:19.959Z,-2.67
2023-01-19T00:12:46.210Z,-2.60
2023-01-19T00:15:12.493Z,-2.59
2023-01-19T00:17:38.795Z,-2.53
2023-01-19T00:20:05.021Z,-2.50
2023-01-19T00:22:31.287Z,-2.62
2023-01-19T00:24:57.575Z,-2.53
2023-01-19T00:27:23.883Z,-2.54
2023-01-19T00:29:50.135Z,-2.56
2023-01-19T00:32:16.516Z,-2.54
2023-01-19T00:34:42.841Z,-2.65
2023-01-19T00:37:09.067Z,-2.61
2023-01-19T00:39:35.307Z,-2.57
2023-01-19T00:42:01.594Z,-2.56
2023-01-19T00:44:28.087Z,-2.51
2023-01-19T00:46:54.415Z,-2.50
2023-01-19T00:49:20.676Z,-2.46
2023-01-19T00:51:46.972Z,-2.51
2023-01-19T00:54:13.288Z,-2.81
2023-01-19T00:56:39.562Z,-2.80
2023-01-19T00:59:05.834Z,-2.76
2023-01-19T01:01:45.262Z,-2.86
2023-01-19T01:04:12.555Z,-2.85
2023-01-19T01:06:38.797Z,-2.80
2023-01-19T01:09:05.125Z,-2.82
2023-01-19T01:11:31.454Z,-2.80
2023-01-19T01:13:57.721Z,-2.84
2023-01-19T01:16:25.285Z,-3.06
2023-01-19T01:18:51.576Z,-3.13
2023-01-19T01:21:17.809Z,-3.04
2023-01-19T01:23:44.110Z,-3.11
2023-01-19T01:26:10.434Z,-3.25
2023-01-19T01:28:36.700Z,-3.32
2023-01-19T01:31:03.040Z,-3.35
2023-01-19T01:33:39.989Z,-3.41
2023-01-19T01:36:07.746Z,-3.43
2023-01-19T01:38:34.101Z,-3.57
2023-01-19T01:41:00.353Z,-3.60
2023-01-19T01:43:26.629Z,-3.69
2023-01-19T01:45:53.084Z,-3.73
2023-01-19T01:48:19.441Z,-3.73
2023-01-19T01:50:45.701Z,-3.73
2023-01-19T01:53:12.195Z,-3.74
2023-01-19T01:55:38.619Z,-3.80
2023-01-19T01:58:04.944Z,-3.81
2023-01-19T02:00:31.236Z,-3.85
2023-01-19T02:02:58.331Z,-3.88
2023-01-19T02:05:24.912Z,-3.97
2023-01-19T02:07:51.190Z,-4.09
2023-01-19T02:10:17.602Z,-4.18
2023-01-19T02:12:43.850Z,-4.23
2023-01-19T02:15:10.093Z,-4.28
2023-01-19T02:17:36.365Z,-4.25
2023-01-19T02:20:02.629Z,-4.26
2023-01-19T02:22:28.981Z,-4.33
2023-01-19T02:24:55.242Z,-4.31
2023-01-19T02:27:22.354Z,-4.39
2023-01-19T02:29:48.594Z,-4.42
2023-01-19T02:32:14.835Z,-4.47
2023-01-19T02:34:41.182Z,-4.45
2023-01-19T02:37:07.604Z,-4.48
2023-01-19T02:39:33.854Z,-4.53
2023-01-19T02:42:00.103Z,-4.84
2023-01-19T02:44:26.348Z,-4.97
2023-01-19T02:46:52.578Z,-5.13
2023-01-19T02:49:18.884Z,-5.00
2023-01-19T02:51:45.217Z,-5.00
2023-01-19T02:54:11.470Z,-4.92
2023-01-19T02:56:37.751Z,-4.93
2023-01-19T02:59:04.012Z,-5.25
2023-01-19T03:01:30.404Z,-5.26
2023-01-19T03:03:56.767Z,-5.30
2023-01-19T03:06:23.054Z,-5.44
2023-01-19T03:08:49.298Z,-5.32
2023-01-19T03:11:15.551Z,-5.28
2023-01-19T03:13:41.833Z,-5.30
2023-01-19T03:16:08.084Z,-5.31
2023-01-19T03:18:34.335Z,-5.31
2023-01-19T03:21:00.607Z,-5.33
2023-01-19T03:23:26.852Z,-5.32
2023-01-19T03:25:53.105Z,-5.36
2023-01-19T03:28:19.384Z,-5.41
2023-01-19T03:30:45.700Z,-5.52
2023-01-19T03:33:11.955Z,-5.43
2023-01-19T03:35:38.541Z,-5.43
2023-01-19T03:38:04.801Z,-5.47
2023-01-19T03:40:31.285Z,-5.45
2023-01-19T03:42:57.582Z,-5.34
2023-01-19T03:45:23.835Z,-5.29
2023-01-19T03:47:50.087Z,-5.28
2023-01-19T03:50:16.359Z,-5.34
2023-01-19T03:52:42.613Z,-5.32
2023-01-19T03:55:08.935Z,-5.34
2023-01-19T03:57:35.243Z,-5.23
2023-01-19T04:00:01.508Z,-5.33
2023-01-19T04:02:27.748Z,-5.32
2023-01-19T04:04:54.063Z,-5.31
2023-01-19T04:07:20.355Z,-5.29
2023-01-19T04:09:46.621Z,-5.32
2023-01-19T04:12:12.911Z,-5.36
2023-01-19T04:14:39.191Z,-5.37
2023-01-19T04:17:05.452Z,-5.35
2023-01-19T04:19:31.696Z,-5.42
2023-01-19T04:21:57.986Z,-5.48
2023-01-19T04:24:24.255Z,-5.49
2023-01-19T04:26:50.507Z,-5.80
2023-01-19T04:29:17.588Z,-5.81
2023-01-19T04:31:43.897Z,-5.75
2023-01-19T04:34:10.157Z,-5.70
2023-01-19T04:36:36.396Z,-5.72
2023-01-19T04:39:02.639Z,-5.65
2023-01-19T04:41:30.346Z,-5.70
2023-01-19T04:43:57.365Z,-5.74
2023-01-19T04:46:23.698Z,-5.91
2023-01-19T04:48:50.032Z,-5.97
2023-01-19T04:51:16.283Z,-5.95
2023-01-19T04:53:42.627Z,-5.95
2023-01-19T04:56:08.974Z,-5.91
2023-01-19T04:58:36.755Z,-5.97
2023-01-19T05:01:03.116Z,-6.01
2023-01-19T05:03:29.474Z,-5.94
2023-01-19T05:05:55.719Z,-5.96
2023-01-19T05:08:21.989Z,-5.96
2023-01-19T05:10:48.269Z,-5.93
2023-01-19T05:13:14.887Z,-5.93
2023-01-19T05:15:41.182Z,-5.86
2023-01-19T05:18:07.474Z,-5.94
2023-01-19T05:20:33.730Z,-5.96
2023-01-19T05:23:00.446Z,-5.90
2023-01-19T05:25:26.811Z,-6.04
2023-01-19T05:27:53.088Z,-6.15
2023-01-19T05:30:19.369Z,-6.10
2023-01-19T05:32:45.634Z,-6.11
2023-01-19T05:35:11.888Z,-6.12
2023-01-19T05:37:38.216Z,-6.09
2023-01-19T05:40:04.550Z,-5.94
2023-01-19T05:42:32.701Z,-5.87
2023-01-19T05:44:59.186Z,-5.95
2023-01-19T05:47:25.509Z,-5.96
2023-01-19T05:49:51.867Z,-5.96
2023-01-19T05:52:18.190Z,-5.84
2023-01-19T05:54:44.482Z,-5.92
2023-01-19T05:57:10.790Z,-5.94
2023-01-19T05:59:37.101Z,-5.88
2023-01-19T06:02:03.422Z,-5.90
2023-01-19T06:04:29.708Z,-5.97
2023-01-19T06:06:55.996Z,-5.90
2023-01-19T06:09:22.291Z,-5.98
2023-01-19T06:11:48.555Z,-6.09
2023-01-19T06:14:14.807Z,-6.10
2023-01-19T06:16:41.115Z,-6.12
2023-01-19T06:19:07.419Z,-6.16
2023-01-19T06:21:33.675Z,-6.19
2023-01-19T06:23:59.982Z,-6.26
2023-01-19T06:26:26.307Z,-6.35
2023-01-19T06:28:52.650Z,-6.36
2023-01-19T06:31:19.102Z,-6.41
2023-01-19T06:33:45.464Z,-6.38
2023-01-19T06:36:11.701Z,-6.49
2023-01-19T06:38:37.999Z,-6.33
2023-01-19T06:41:04.493Z,-6.29
2023-01-19T06:43:30.776Z,-6.26
2023-01-19T06:45:57.170Z,-6.38
2023-01-19T06:48:23.523Z,-6.42
2023-01-19T06:50:49.792Z,-6.43
2023-01-19T06:53:16.093Z,-6.72
2023-01-19T06:55:42.373Z,-6.63
2023-01-19T06:58:08.749Z,-6.61
2023-01-19T07:00:35.054Z,-6.67
2023-01-19T07:03:01.725Z,-6.57
2023-01-19T07:05:28.272Z,-6.74
2023-01-19T07:07:54.657Z,-6.66
2023-01-19T07:10:21.099Z,-6.53
2023-01-19T07:12:47.477Z,-6.48
2023-01-19T07:15:14.311Z,-6.45
2023-01-19T07:17:40.952Z,-6.42
2023-01-19T07:20:07.368Z,-6.33
2023-01-19T07:22:33.919Z,-6.32
2023-01-19T07:25:00.374Z,-6.50
2023-01-19T07:27:26.851Z,-6.53
2023-01-19T07:29:53.360Z,-6.53
2023-01-19T07:32:19.750Z,-6.41
2023-01-19T07:34:46.191Z,-6.34
2023-01-19T07:37:12.702Z,-6.38
2023-01-19T07:39:39.197Z,-6.43
2023-01-19T07:42:05.610Z,-6.38
2023-01-19T07:44:32.140Z,-6.41
2023-01-19T07:46:58.634Z,-6.40
2023-01-19T07:49:25.035Z,-6.36
2023-01-19T07:51:51.414Z,-6.27
2023-01-19T07:54:17.719Z,-6.29
2023-01-19T07:56:44.345Z,-6.16
2023-01-19T07:59:10.797Z,-6.16
2023-01-19T08:01:37.172Z,-6.00
2023-01-19T08:04:03.493Z,-5.86
2023-01-19T08:06:29.742Z,-5.88
2023-01-19T08:08:56.051Z,-5.87
2023-01-19T08:11:22.366Z,-5.86
2023-01-19T08:13:48.702Z,-5.79
2023-01-19T08:16:15.003Z,-5.84
2023-01-19T08:18:41.321Z,-5.78
2023-01-19T08:21:07.582Z,-5.74
2023-01-19T08:23:33.879Z,-5.70
2023-01-19T08:26:00.135Z,-5.58
2023-01-19T08:28:26.479Z,-5.64
2023-01-19T08:30:53.002Z,-5.67
2023-01-19T08:33:19.267Z,-5.61
2023-01-19T08:35:45.560Z,-5.56
2023-01-19T08:38:11.838Z,-5.53
2023-01-19T08:40:38.069Z,-5.44
2023-01-19T08:43:04.441Z,-5.39
2023-01-19T08:45:30.773Z,-5.33
2023-01-19T08:47:57.033Z,-5.26
2023-01-19T08:50:23.371Z,-5.19
2023-01-19T08:52:49.668Z,-5.08
2023-01-19T08:55:15.904Z,-5.03
2023-01-19T08:57:42.199Z,-4.96
2023-01-19T09:00:08.461Z,-4.89
2023-01-19T09:02:34.773Z,-4.78
2023-01-19T09:05:01.178Z,-4.69
2023-01-19T09:07:27.421Z,-4.60
2023-01-19T09:09:53.855Z,-4.61
2023-01-19T09:12:20.330Z,-4.67
2023-01-19T09:14:46.658Z,-4.57
2023-01-19T09:17:12.919Z,-4.57
2023-01-19T09:19:41.427Z,-4.43
2023-01-19T09:22:07.769Z,-4.33
2023-01-19T09:24:34.007Z,-4.26
2023-01-19T09:27:00.264Z,-4.24
2023-01-19T09:29:26.539Z,-4.13
2023-01-19T09:31:52.846Z,-3.98
2023-01-19T09:34:19.106Z,-3.93
2023-01-19T09:36:45.363Z,-3.83
2023-01-19T09:39:11.600Z,-3.74
2023-01-19T09:41:37.924Z,-3.68
2023-01-19T09:44:04.235Z,-3.72
2023-01-19T09:46:30.529Z,-3.67
2023-01-19T09:48:56.913Z,-3.60
2023-01-19T09:51:23.273Z,-3.52
2023-01-19T09:53:49.507Z,-3.43
2023-01-19T09:56:15.832Z,-3.44
2023-01-19T09:58:42.079Z,-3.45
2023-01-19T10:01:08.514Z,-3.38
2023-01-19T10:03:35.079Z,-3.23
2023-01-19T10:06:01.467Z,-3.15
2023-01-19T10:08:27.758Z,-3.04
2023-01-19T10:10:54.240Z,-2.93
2023-01-19T10:13:20.522Z,-2.89
2023-01-19T10:15:46.854Z,-2.89
2023-01-19T10:18:13.136Z,-2.91
2023-01-19T10:20:39.395Z,-2.85
2023-01-19T10:23:05.622Z,-2.86
2023-01-19T10:25:31.991Z,-2.78
2023-01-19T10:27:58.387Z,-2.72
2023-01-19T10:30:24.756Z,-2.82
2023-01-19T10:32:51.095Z,-2.76
2023-01-19T10:35:17.553Z,-2.70
2023-01-19T10:37:43.779Z,-2.59
2023-01-19T10:40:10.049Z,-2.51
2023-01-19T10:42:36.705Z,-2.45
2023-01-19T10:45:03.139Z,-2.41
2023-01-19T10:47:29.433Z,-2.36
2023-01-19T10:49:55.804Z,-2.29
2023-01-19T10:52:22.130Z,-2.29
2023-01-19T10:54:48.476Z,-2.20
2023-01-19T10:57:14.847Z,-2.65
2023-01-19T10:59:41.115Z,-3.03
2023-01-19T11:02:07.536Z,-3.43
2023-01-19T11:04:33.974Z,-3.23
2023-01-19T11:07:00.249Z,-3.08
2023-01-19T11:09:26.509Z,-2.91
2023-01-19T11:11:52.874Z,-3.16
2023-01-19T11:14:19.572Z,-3.32
2023-01-19T11:16:45.936Z,-3.13
2023-01-19T11:19:12.331Z,-3.15
2023-01-19T11:21:38.651Z,-2.98
2023-01-19T11:24:04.880Z,-2.74
2023-01-19T11:26:31.129Z,-2.56
2023-01-19T11:28:57.387Z,-2.45
2023-01-19T11:31:23.821Z,-2.38
2023-01-19T11:33:50.973Z,-2.31
2023-01-19T11:36:17.403Z,-2.23
2023-01-19T11:38:43.672Z,-2.14
2023-01-19T11:41:10.032Z,-2.12
2023-01-19T11:43:48.367Z,-2.12
2023-01-19T11:46:15.464Z,-2.08
2023-01-19T11:48:41.773Z,-2.04
2023-01-19T11:51:08.091Z,-1.97
2023-01-19T11:53:35.942Z,-1.95
2023-01-19T11:56:02.437Z,-1.94
2023-01-19T11:58:28.713Z,-1.97
2023-01-19T12:00:57.372Z,-1.98
2023-01-19T12:03:23.720Z,-2.03
2023-01-19T12:05:50.015Z,-2.08
2023-01-19T12:08:16.361Z,-2.13
2023-01-19T12:10:42.656Z,-2.24
2023-01-19T12:13:08.907Z,-2.36
2023-01-19T12:15:35.270Z,-2.54
2023-01-19T12:18:01.912Z,-2.65
2023-01-19T12:20:28.328Z,-2.66
2023-01-19T12:22:54.651Z,-2.81
2023-01-19T12:25:20.982Z,-2.94
2023-01-19T12:27:47.282Z,-2.81
2023-01-19T12:30:13.598Z,-2.81
2023-01-19T12:32:39.878Z,-2.83
2023-01-19T12:35:06.146Z,-2.85
2023-01-19T12:37:32.488Z,-2.95
2023-01-19T12:39:58.768Z,-3.00
2023-01-19T12:42:25.017Z,-2.94
2023-01-19T12:44:51.320Z,-3.06
2023-01-19T12:47:17.595Z,-3.08
2023-01-19T12:49:44.063Z,-3.04
2023-01-19T12:52:10.539Z,-2.95
2023-01-19T12:54:37.928Z,-2.94
2023-01-19T12:57:04.469Z,-2.96
2023-01-19T12:59:31.042Z,-2.97
2023-01-19T13:01:57.848Z,-2.99
2023-01-19T13:04:24.317Z,-3.00
2023-01-19T13:06:50.867Z,-2.98
2023-01-19T13:09:17.354Z,-2.97
2023-01-19T13:11:48.438Z,-3.00
2023-01-19T13:14:17.373Z,-3.01
2023-01-19T13:16:43.803Z,-3.10
2023-01-19T13:19:10.260Z,-3.03
2023-01-19T13:21:37.882Z,-2.93
2023-01-19T13:24:04.366Z,-2.92
2023-01-19T13:26:30.654Z,-2.91
2023-01-19T13:28:56.945Z,-2.90
2023-01-19T13:31:23.324Z,-2.91
2023-01-19T13:33:49.668Z,-2.99
2023-01-19T13:36:16.115Z,-3.07
2023-01-19T13:38:42.483Z,-2.98
2023-01-19T13:41:08.770Z,-2.87
2023-01-19T13:43:35.061Z,-2.92
2023-01-19T13:46:01.648Z,-3.04
2023-01-19T13:48:30.838Z,-3.06
2023-01-19T13:50:57.098Z,-3.04
2023-01-19T13:53:23.421Z,-3.02
2023-01-19T13:55:49.646Z,-3.03
2023-01-19T13:58:15.947Z,-3.08
2023-01-19T14:00:42.277Z,-3.02
2023-01-19T14:03:08.556Z,-3.05
2023-01-19T14:05:34.995Z,-3.07
2023-01-19T14:08:01.438Z,-3.06
2023-01-19T14:10:27.716Z,-3.12
2023-01-19T14:12:59.260Z,-3.30
2023-01-19T14:15:26.025Z,-3.27
2023-01-19T14:17:52.316Z,-3.28
2023-01-19T14:20:18.636Z,-3.25
2023-01-19T14:22:44.914Z,-3.39
2023-01-19T14:25:11.195Z,-3.35
2023-01-19T14:27:37.492Z,-3.35
2023-01-19T14:30:03.777Z,-3.37
2023-01-19T14:32:30.131Z,-3.44
2023-01-19T14:34:56.408Z,-3.55
2023-01-19T14:37:22.657Z,-3.64
2023-01-19T14:39:48.891Z,-3.63
2023-01-19T14:42:17.325Z,-3.68
2023-01-19T14:44:43.723Z,-3.70
2023-01-19T14:47:09.979Z,-3.70
2023-01-19T14:49:36.318Z,-3.80
2023-01-19T14:52:02.575Z,-3.97
2023-01-19T14:54:28.834Z,-4.01
2023-01-19T14:56:55.110Z,-4.07
2023-01-19T14:59:21.426Z,-4.13
2023-01-19T15:01:47.819Z,-4.16
2023-01-19T15:04:14.143Z,-4.13
2023-01-19T15:06:40.391Z,-4.20
2023-01-19T15:09:26.352Z,-4.05
2023-01-19T15:11:52.609Z,-4.06
2023-01-19T15:14:18.937Z,-4.06
2023-01-19T15:16:45.219Z,-4.03
2023-01-19T15:19:11.575Z,-4.09
2023-01-19T15:21:37.877Z,-4.10
2023-01-19T15:24:04.185Z,-4.14
2023-01-19T15:26:30.505Z,-4.17
2023-01-19T15:28:56.799Z,-4.16
2023-01-19T15:31:23.142Z,-4.17
2023-01-19T15:33:49.481Z,-4.24
2023-01-19T15:36:17.816Z,-4.31
2023-01-19T15:38:44.482Z,-4.32
2023-01-19T15:41:12.720Z,-4.33
2023-01-19T15:43:38.955Z,-4.34
2023-01-19T15:46:05.239Z,-4.41
2023-01-19T15:48:31.561Z,-4.51
2023-01-19T15:50:57.839Z,-4.57
2023-01-19T15:53:24.191Z,-5.07
2023-01-19T15:55:50.465Z,-5.05
2023-01-19T15:58:16.780Z,-4.96
2023-01-19T16:00:43.125Z,-5.02
2023-01-19T16:03:09.493Z,-5.07
2023-01-19T16:05:42.838Z,-5.09
2023-01-19T16:08:09.590Z,-5.12
2023-01-19T16:10:35.846Z,-5.25
2023-01-19T16:13:02.126Z,-5.33
2023-01-19T16:15:28.377Z,-5.31
2023-01-19T16:17:54.686Z,-5.33
2023-01-19T16:20:20.922Z,-5.29
2023-01-19T16:22:47.269Z,-5.24
2023-01-19T16:25:13.604Z,-5.27
2023-01-19T16:27:39.892Z,-5.30
2023-01-19T16:30:06.217Z,-5.29
2023-01-19T16:32:32.510Z,-5.33
2023-01-19T16:34:58.806Z,-5.34
2023-01-19T16:37:27.903Z,-5.30
2023-01-19T16:39:54.326Z,-5.34
2023-01-19T16:42:20.656Z,-5.29
2023-01-19T16:44:46.903Z,-5.46
2023-01-19T16:47:13.127Z,-5.42
2023-01-19T16:49:39.361Z,-5.51
2023-01-19T16:52:05.629Z,-5.45
2023-01-19T16:54:31.861Z,-5.46
2023-01-19T16:56:58.132Z,-5.47
2023-01-19T16:59:24.401Z,-5.68
2023-01-19T17:01:50.830Z,-5.74
2023-01-19T17:04:17.216Z,-5.77
2023-01-19T17:06:43.748Z,-5.72
2023-01-19T17:09:09.994Z,-5.74
2023-01-19T17:11:36.261Z,-5.79
2023-01-19T17:14:02.487Z,-5.85
2023-01-19T17:16:28.767Z,-5.91
2023-01-19T17:18:55.102Z,-5.95
2023-01-19T17:21:21.460Z,-5.93
2023-01-19T17:23:48.109Z,-5.92
2023-01-19T17:26:14.398Z,-5.99
2023-01-19T17:28:40.703Z,-5.95
2023-01-19T17:31:07.049Z,-5.95
2023-01-19T17:33:33.490Z,-6.00
2023-01-19T17:35:59.792Z,-6.11
2023-01-19T17:38:26.054Z,-6.08
2023-01-19T17:40:52.397Z,-6.16
2023-01-19T17:43:18.765Z,-6.40
2023-01-19T17:45:45.111Z,-6.31
2023-01-19T17:48:11.485Z,-6.31
2023-01-19T17:50:37.823Z,-6.26
2023-01-19T17:53:04.128Z,-6.25
2023-01-19T17:55:30.412Z,-6.25
2023-01-19T17:57:57.427Z,-6.25
2023-01-19T18:00:24.997Z,-6.34
2023-01-19T18:02:51.376Z,-6.43
2023-01-19T18:05:17.795Z,-6.46
2023-01-19T18:07:44.092Z,-6.46
2023-01-19T18:10:10.406Z,-6.54
2023-01-19T18:12:36.688Z,-6.66
2023-01-19T18:15:02.999Z,-6.65
2023-01-19T18:17:30.803Z,-6.62
2023-01-19T18:19:57.264Z,-6.51
2023-01-19T18:22:23.599Z,-6.42
2023-01-19T18:24:49.881Z,-6.53
2023-01-19T18:27:16.247Z,-6.52
2023-01-19T18:29:42.533Z,-6.56
2023-01-19T18:32:08.790Z,-6.53
2023-01-19T18:34:35.108Z,-6.42
2023-01-19T18:37:01.399Z,-6.48
2023-01-19T18:39:27.646Z,-6.37
2023-01-19T18:41:53.880Z,-6.51
2023-01-19T18:44:20.177Z,-6.51
2023-01-19T18:46:46.471Z,-6.46
2023-01-19T18:49:12.711Z,-6.45
2023-01-19T18:51:38.954Z,-6.43
2023-01-19T18:54:05.206Z,-6.35
2023-01-19T18:56:31.568Z,-6.30
2023-01-19T18:58:57.855Z,-6.29
2023-01-19T19:01:24.202Z,-6.29
2023-01-19T19:03:50.579Z,-6.26
2023-01-19T19:06:16.877Z,-6.33
2023-01-19T19:08:43.147Z,-6.53
2023-01-19T19:11:09.490Z,-6.60
2023-01-19T19:13:35.829Z,-6.73
2023-01-19T19:16:02.592Z,-6.61
2023-01-19T19:18:28.971Z,-6.59
2023-01-19T19:20:55.290Z,-6.70
2023-01-19T19:23:21.519Z,-6.98
2023-01-19T19:25:47.757Z,-7.07
2023-01-19T19:28:14.096Z,-7.08
2023-01-19T19:30:40.463Z,-7.02
2023-01-19T19:33:06.731Z,-6.94
2023-01-19T19:35:33.029Z,-6.91
2023-01-19T19:37:59.369Z,-6.83
2023-01-19T19:40:25.617Z,-6.92
2023-01-19T19:42:51.916Z,-6.91
2023-01-19T19:45:18.282Z,-6.94
2023-01-19T19:47:44.518Z,-6.86
2023-01-19T19:50:11.190Z,-6.92
2023-01-19T19:52:37.757Z,-7.00
2023-01-19T19:55:04.072Z,-6.97
2023-01-19T19:57:30.423Z,-6.92
2023-01-19T19:59:56.723Z,-6.89
2023-01-19T20:02:22.981Z,-6.85
2023-01-19T20:04:49.347Z,-6.89
2023-01-19T20:07:17.838Z,-7.02
2023-01-19T20:09:44.225Z,-7.05
2023-01-19T20:12:10.525Z,-6.97
2023-01-19T20:14:36.799Z,-6.86
2023-01-19T20:17:03.098Z,-6.98
2023-01-19T20:19:31.145Z,-7.00
2023-01-19T20:21:58.704Z,-7.19
2023-01-19T20:24:24.930Z,-7.28
2023-01-19T20:26:51.194Z,-7.36
2023-01-19T20:29:17.568Z,-7.38
2023-01-19T20:31:44.132Z,-7.29
2023-01-19T20:34:10.407Z,-7.28
2023-01-19T20:36:36.665Z,-7.13
2023-01-19T20:39:02.948Z,-7.03
2023-01-19T20:41:29.231Z,-7.07
2023-01-19T20:43:55.529Z,-7.07
2023-01-19T20:46:21.860Z,-7.26
2023-01-19T20:48:48.104Z,-7.23
2023-01-19T20:51:14.354Z,-7.35
2023-01-19T20:53:40.659Z,-7.28
2023-01-19T20:56:06.948Z,-7.43
2023-01-19T20:58:33.200Z,-7.31
2023-01-19T21:00:59.490Z,-7.22
2023-01-19T21:03:25.759Z,-7.14
2023-01-19T21:05:52.043Z,-7.23
2023-01-19T21:08:18.307Z,-7.40
2023-01-19T21:10:44.543Z,-7.37
2023-01-19T21:13:10.786Z,-7.43
2023-01-19T21:15:37.032Z,-7.33
2023-01-19T21:18:03.276Z,-7.39
2023-01-19T21:20:29.550Z,-7.34
2023-01-19T21:22:55.909Z,-7.29
2023-01-19T21:25:22.177Z,-7.50
2023-01-19T21:27:48.488Z,-7.54
2023-01-19T21:30:14.759Z,-7.66
2023-01-19T21:32:41.012Z,-7.68
2023-01-19T21:35:07.296Z,-7.66
2023-01-19T21:37:33.572Z,-7.60
2023-01-19T21:39:59.849Z,-7.46
2023-01-19T21:42:26.079Z,-7.39
2023-01-19T21:44:52.386Z,-7.38
2023-01-19T21:47:18.633Z,-7.44
2023-01-19T21:49:45.002Z,-7.35
2023-01-19T21:52:11.320Z,-7.38
2023-01-19T21:54:37.554Z,-7.63
2023-01-19T21:57:03.847Z,-7.71
2023-01-19T21:59:30.209Z,-7.70
2023-01-19T22:01:56.673Z,-7.68
2023-01-19T22:04:23.074Z,-7.67
2023-01-19T22:06:49.378Z,-7.55
2023-01-19T22:09:15.622Z,-7.47
2023-01-19T22:11:41.856Z,-7.43
2023-01-19T22:14:08.152Z,-7.39
2023-01-19T22:16:34.480Z,-7.52
2023-01-19T22:19:00.757Z,-7.71
2023-01-19T22:21:27.042Z,-7.64
2023-01-19T22:23:53.322Z,-7.59
2023-01-19T22:26:19.600Z,-7.61
2023-01-19T22:28:45.932Z,-7.49
2023-01-19T22:31:12.421Z,-7.46
2023-01-19T22:33:38.741Z,-7.43
2023-01-19T22:36:05.073Z,-7.53
2023-01-19T22:38:31.379Z,-7.42
2023-01-19T22:40:57.687Z,-7.41
2023-01-19T22:43:23.999Z,-7.50
2023-01-19T22:45:50.537Z,-7.48
2023-01-19T22:48:16.905Z,-7.47
2023-01-19T22:50:43.134Z,-7.46
2023-01-19T22:53:09.367Z,-7.66
2023-01-19T22:55:35.625Z,-7.53
2023-01-19T22:58:02.012Z,-7.53
2023-01-19T23:00:28.306Z,-7.69
2023-01-19T23:02:54.547Z,-7.72
2023-01-19T23:05:20.827Z,-7.66
2023-01-19T23:07:47.102Z,-7.65
2023-01-19T23:10:13.350Z,-7.70
2023-01-19T23:12:39.610Z,-7.73
2023-01-19T23:15:05.902Z,-7.75
2023-01-19T23:17:32.162Z,-7.74
2023-01-19T23:19:58.451Z,-7.66
2023-01-19T23:22:24.727Z,-7.68
2023-01-19T23:24:51.015Z,-7.82
2023-01-19T23:27:17.308Z,-7.84
2023-01-19T23:29:43.588Z,-7.91
2023-01-19T23:32:09.824Z,-7.87
2023-01-19T23:34:36.123Z,-7.91
2023-01-19T23:37:02.415Z,-7.87
2023-01-19T23:39:28.636Z,-7.81
2023-01-19T23:41:54.923Z,-7.79
2023-01-19T23:44:21.227Z,-7.76
2023-01-19T23:46:47.479Z,-7.70
2023-01-19T23:49:13.792Z,-7.83
2023-01-19T23:51:40.081Z,-7.78
2023-01-19T23:54:06.376Z,-7.77
2023-01-19T23:56:32.634Z,-7.71
2023-01-19T23:58:58.905Z,-7.73
